sensor_id;sensor_type;location;lat;lon;timestamp;P1;durP1;ratioP1;P2;durP2;ratioP2
78838;SDS011;68405;47.190;27.558;2023-07-02T00:00:34;6.20;;;3.70;;
78838;SDS011;68405;47.190;27.558;2023-07-02T00:03:25;4.20;;;3.10;;
78838;SDS011;68405;47.190;27.558;2023-07-02T00:05:54;6.90;;;3.40;;
78838;SDS011;68405;47.190;27.558;2023-07-02T00:08:24;6.50;;;3.70;;
78838;SDS011;68405;47.190;27.558;2023-07-02T00:10:53;9.30;;;3.50;;
78838;SDS011;68405;47.190;27.558;2023-07-02T00:13:22;5.70;;;3.20;;
78838;SDS011;68405;47.190;27.558;2023-07-02T00:15:51;5.10;;;3.50;;
78838;SDS011;68405;47.190;27.558;2023-07-02T00:18:19;6.80;;;4.00;;
78838;SDS011;68405;47.190;27.558;2023-07-02T00:20:49;6.40;;;3.30;;
78838;SDS011;68405;47.190;27.558;2023-07-02T00:23:17;7.00;;;3.70;;
78838;SDS011;68405;47.190;27.558;2023-07-02T00:25:47;6.00;;;3.90;;
78838;SDS011;68405;47.190;27.558;2023-07-02T00:28:16;6.40;;;3.70;;
78838;SDS011;68405;47.190;27.558;2023-07-02T00:30:45;7.10;;;3.80;;
78838;SDS011;68405;47.190;27.558;2023-07-02T00:33:15;6.40;;;3.60;;
78838;SDS011;68405;47.190;27.558;2023-07-02T00:35:44;4.90;;;3.70;;
78838;SDS011;68405;47.190;27.558;2023-07-02T00:38:13;7.00;;;3.50;;
78838;SDS011;68405;47.190;27.558;2023-07-02T00:40:42;5.50;;;3.20;;
78838;SDS011;68405;47.190;27.558;2023-07-02T00:43:11;6.00;;;3.50;;
78838;SDS011;68405;47.190;27.558;2023-07-02T00:45:40;6.00;;;3.40;;
78838;SDS011;68405;47.190;27.558;2023-07-02T00:48:08;9.40;;;3.20;;
78838;SDS011;68405;47.190;27.558;2023-07-02T00:50:37;6.50;;;3.70;;
78838;SDS011;68405;47.190;27.558;2023-07-02T00:53:08;5.00;;;3.10;;
78838;SDS011;68405;47.190;27.558;2023-07-02T00:55:37;7.60;;;3.80;;
78838;SDS011;68405;47.190;27.558;2023-07-02T00:58:06;5.40;;;3.20;;
78838;SDS011;68405;47.190;27.558;2023-07-02T01:00:36;7.10;;;3.90;;
78838;SDS011;68405;47.190;27.558;2023-07-02T01:03:05;5.00;;;3.10;;
78838;SDS011;68405;47.190;27.558;2023-07-02T01:05:34;6.60;;;4.10;;
78838;SDS011;68405;47.190;27.558;2023-07-02T01:08:03;5.70;;;3.80;;
78838;SDS011;68405;47.190;27.558;2023-07-02T01:10:32;7.60;;;3.90;;
78838;SDS011;68405;47.190;27.558;2023-07-02T01:13:03;6.00;;;3.40;;
78838;SDS011;68405;47.190;27.558;2023-07-02T01:15:37;6.00;;;3.50;;
78838;SDS011;68405;47.190;27.558;2023-07-02T01:18:07;5.10;;;3.50;;
78838;SDS011;68405;47.190;27.558;2023-07-02T01:20:36;5.00;;;3.50;;
78838;SDS011;68405;47.190;27.558;2023-07-02T01:23:06;4.00;;;3.40;;
78838;SDS011;68405;47.190;27.558;2023-07-02T01:25:36;5.40;;;3.60;;
78838;SDS011;68405;47.190;27.558;2023-07-02T01:28:05;4.10;;;3.30;;
78838;SDS011;68405;47.190;27.558;2023-07-02T01:30:34;7.90;;;3.90;;
78838;SDS011;68405;47.190;27.558;2023-07-02T01:33:03;7.80;;;3.80;;
78838;SDS011;68405;47.190;27.558;2023-07-02T01:35:32;5.80;;;3.20;;
78838;SDS011;68405;47.190;27.558;2023-07-02T01:38:01;7.00;;;3.30;;
78838;SDS011;68405;47.190;27.558;2023-07-02T01:40:30;7.10;;;3.80;;
78838;SDS011;68405;47.190;27.558;2023-07-02T01:42:59;4.90;;;3.80;;
78838;SDS011;68405;47.190;27.558;2023-07-02T01:45:28;5.00;;;3.60;;
78838;SDS011;68405;47.190;27.558;2023-07-02T01:47:56;5.90;;;4.10;;
78838;SDS011;68405;47.190;27.558;2023-07-02T01:50:25;4.10;;;3.60;;
78838;SDS011;68405;47.190;27.558;2023-07-02T01:52:54;6.50;;;3.80;;
78838;SDS011;68405;47.190;27.558;2023-07-02T01:55:23;4.50;;;3.90;;
78838;SDS011;68405;47.190;27.558;2023-07-02T01:57:52;7.80;;;4.20;;
78838;SDS011;68405;47.190;27.558;2023-07-02T02:00:21;4.90;;;4.00;;
78838;SDS011;68405;47.190;27.558;2023-07-02T02:02:51;6.10;;;4.00;;
78838;SDS011;68405;47.190;27.558;2023-07-02T02:05:20;9.30;;;3.80;;
78838;SDS011;68405;47.190;27.558;2023-07-02T02:07:49;6.00;;;4.10;;
78838;SDS011;68405;47.190;27.558;2023-07-02T02:10:18;4.60;;;3.50;;
78838;SDS011;68405;47.190;27.558;2023-07-02T02:12:47;4.80;;;3.20;;
78838;SDS011;68405;47.190;27.558;2023-07-02T02:15:16;6.00;;;4.00;;
78838;SDS011;68405;47.190;27.558;2023-07-02T02:17:45;7.00;;;3.90;;
78838;SDS011;68405;47.190;27.558;2023-07-02T02:20:14;5.10;;;3.60;;
78838;SDS011;68405;47.190;27.558;2023-07-02T02:22:44;5.50;;;3.90;;
78838;SDS011;68405;47.190;27.558;2023-07-02T02:25:12;6.00;;;4.30;;
78838;SDS011;68405;47.190;27.558;2023-07-02T02:27:41;9.00;;;4.40;;
78838;SDS011;68405;47.190;27.558;2023-07-02T02:30:11;5.30;;;3.80;;
78838;SDS011;68405;47.190;27.558;2023-07-02T02:32:40;5.50;;;4.60;;
78838;SDS011;68405;47.190;27.558;2023-07-02T02:35:09;4.90;;;4.10;;
78838;SDS011;68405;47.190;27.558;2023-07-02T02:37:38;5.50;;;4.00;;
78838;SDS011;68405;47.190;27.558;2023-07-02T02:40:09;4.80;;;3.80;;
78838;SDS011;68405;47.190;27.558;2023-07-02T02:42:39;6.00;;;4.30;;
78838;SDS011;68405;47.190;27.558;2023-07-02T02:45:09;8.30;;;4.20;;
78838;SDS011;68405;47.190;27.558;2023-07-02T02:47:38;8.90;;;4.20;;
78838;SDS011;68405;47.190;27.558;2023-07-02T02:50:08;8.50;;;4.30;;
78838;SDS011;68405;47.190;27.558;2023-07-02T02:52:40;6.50;;;3.90;;
78838;SDS011;68405;47.190;27.558;2023-07-02T02:55:10;6.50;;;4.30;;
78838;SDS011;68405;47.190;27.558;2023-07-02T02:57:39;5.40;;;3.90;;
78838;SDS011;68405;47.190;27.558;2023-07-02T03:00:11;9.20;;;4.60;;
78838;SDS011;68405;47.190;27.558;2023-07-02T03:02:40;5.10;;;3.80;;
78838;SDS011;68405;47.190;27.558;2023-07-02T03:05:10;6.50;;;4.10;;
78838;SDS011;68405;47.190;27.558;2023-07-02T03:07:39;8.30;;;4.20;;
78838;SDS011;68405;47.190;27.558;2023-07-02T03:10:08;7.60;;;3.60;;
78838;SDS011;68405;47.190;27.558;2023-07-02T03:12:38;5.80;;;4.20;;
78838;SDS011;68405;47.190;27.558;2023-07-02T03:15:07;6.00;;;3.70;;
78838;SDS011;68405;47.190;27.558;2023-07-02T03:17:37;7.70;;;4.20;;
78838;SDS011;68405;47.190;27.558;2023-07-02T03:20:07;6.30;;;3.80;;
78838;SDS011;68405;47.190;27.558;2023-07-02T03:22:37;6.80;;;4.10;;
78838;SDS011;68405;47.190;27.558;2023-07-02T03:25:07;6.00;;;4.20;;
78838;SDS011;68405;47.190;27.558;2023-07-02T03:27:36;7.10;;;4.30;;
78838;SDS011;68405;47.190;27.558;2023-07-02T03:30:06;6.40;;;4.70;;
78838;SDS011;68405;47.190;27.558;2023-07-02T03:32:36;5.60;;;4.40;;
78838;SDS011;68405;47.190;27.558;2023-07-02T03:35:06;7.90;;;4.00;;
78838;SDS011;68405;47.190;27.558;2023-07-02T03:37:35;4.60;;;3.30;;
78838;SDS011;68405;47.190;27.558;2023-07-02T03:40:06;4.70;;;3.90;;
78838;SDS011;68405;47.190;27.558;2023-07-02T03:42:36;5.30;;;3.70;;
78838;SDS011;68405;47.190;27.558;2023-07-02T03:45:06;8.50;;;4.30;;
78838;SDS011;68405;47.190;27.558;2023-07-02T03:47:36;7.80;;;4.20;;
78838;SDS011;68405;47.190;27.558;2023-07-02T03:50:05;6.60;;;3.90;;
78838;SDS011;68405;47.190;27.558;2023-07-02T03:52:36;9.80;;;4.30;;
78838;SDS011;68405;47.190;27.558;2023-07-02T03:55:07;6.30;;;4.10;;
78838;SDS011;68405;47.190;27.558;2023-07-02T03:57:36;7.70;;;4.30;;
78838;SDS011;68405;47.190;27.558;2023-07-02T04:00:06;3.60;;;3.10;;
78838;SDS011;68405;47.190;27.558;2023-07-02T04:02:38;3.70;;;3.30;;
78838;SDS011;68405;47.190;27.558;2023-07-02T04:05:07;6.10;;;4.20;;
78838;SDS011;68405;47.190;27.558;2023-07-02T04:07:36;4.10;;;3.30;;
78838;SDS011;68405;47.190;27.558;2023-07-02T04:10:06;7.70;;;3.20;;
78838;SDS011;68405;47.190;27.558;2023-07-02T04:12:36;4.00;;;2.70;;
78838;SDS011;68405;47.190;27.558;2023-07-02T04:15:06;3.80;;;3.00;;
78838;SDS011;68405;47.190;27.558;2023-07-02T04:17:36;8.60;;;3.40;;
78838;SDS011;68405;47.190;27.558;2023-07-02T04:20:06;6.80;;;3.40;;
78838;SDS011;68405;47.190;27.558;2023-07-02T04:22:37;5.80;;;2.90;;
78838;SDS011;68405;47.190;27.558;2023-07-02T04:25:07;4.30;;;3.40;;
78838;SDS011;68405;47.190;27.558;2023-07-02T04:27:36;5.90;;;2.80;;
78838;SDS011;68405;47.190;27.558;2023-07-02T04:30:07;7.50;;;3.20;;
78838;SDS011;68405;47.190;27.558;2023-07-02T04:32:37;5.40;;;2.80;;
78838;SDS011;68405;47.190;27.558;2023-07-02T04:35:07;4.20;;;2.60;;
78838;SDS011;68405;47.190;27.558;2023-07-02T04:37:36;3.00;;;2.70;;
78838;SDS011;68405;47.190;27.558;2023-07-02T04:40:07;4.40;;;2.60;;
78838;SDS011;68405;47.190;27.558;2023-07-02T04:42:37;4.90;;;2.50;;
78838;SDS011;68405;47.190;27.558;2023-07-02T04:45:07;7.30;;;2.90;;
78838;SDS011;68405;47.190;27.558;2023-07-02T04:47:37;4.50;;;2.70;;
78838;SDS011;68405;47.190;27.558;2023-07-02T04:50:06;3.60;;;2.50;;
78838;SDS011;68405;47.190;27.558;2023-07-02T04:52:36;6.90;;;3.20;;
78838;SDS011;68405;47.190;27.558;2023-07-02T04:55:05;4.20;;;3.00;;
78838;SDS011;68405;47.190;27.558;2023-07-02T04:57:35;3.80;;;2.80;;
78838;SDS011;68405;47.190;27.558;2023-07-02T05:00:04;6.10;;;3.20;;
78838;SDS011;68405;47.190;27.558;2023-07-02T05:02:35;4.70;;;2.80;;
78838;SDS011;68405;47.190;27.558;2023-07-02T05:05:04;4.60;;;3.10;;
78838;SDS011;68405;47.190;27.558;2023-07-02T05:07:34;5.70;;;2.80;;
78838;SDS011;68405;47.190;27.558;2023-07-02T05:10:03;5.60;;;3.00;;
78838;SDS011;68405;47.190;27.558;2023-07-02T05:12:33;6.10;;;3.40;;
78838;SDS011;68405;47.190;27.558;2023-07-02T05:15:02;3.90;;;2.80;;
78838;SDS011;68405;47.190;27.558;2023-07-02T05:17:32;3.40;;;3.10;;
78838;SDS011;68405;47.190;27.558;2023-07-02T05:20:07;5.30;;;2.90;;
78838;SDS011;68405;47.190;27.558;2023-07-02T05:22:37;4.60;;;3.10;;
78838;SDS011;68405;47.190;27.558;2023-07-02T05:25:07;4.50;;;2.70;;
78838;SDS011;68405;47.190;27.558;2023-07-02T05:27:36;3.90;;;3.20;;
78838;SDS011;68405;47.190;27.558;2023-07-02T05:30:07;4.00;;;2.80;;
78838;SDS011;68405;47.190;27.558;2023-07-02T05:32:37;5.80;;;3.20;;
78838;SDS011;68405;47.190;27.558;2023-07-02T05:35:07;6.40;;;3.10;;
78838;SDS011;68405;47.190;27.558;2023-07-02T05:37:36;5.70;;;3.40;;
78838;SDS011;68405;47.190;27.558;2023-07-02T05:40:07;6.30;;;2.90;;
78838;SDS011;68405;47.190;27.558;2023-07-02T05:42:37;3.20;;;2.80;;
78838;SDS011;68405;47.190;27.558;2023-07-02T05:45:06;3.40;;;3.10;;
78838;SDS011;68405;47.190;27.558;2023-07-02T05:47:36;3.00;;;2.60;;
78838;SDS011;68405;47.190;27.558;2023-07-02T05:50:07;5.40;;;3.60;;
78838;SDS011;68405;47.190;27.558;2023-07-02T05:52:37;3.30;;;2.90;;
78838;SDS011;68405;47.190;27.558;2023-07-02T05:55:08;3.50;;;3.20;;
78838;SDS011;68405;47.190;27.558;2023-07-02T05:57:37;4.20;;;3.40;;
78838;SDS011;68405;47.190;27.558;2023-07-02T06:00:08;3.90;;;3.40;;
78838;SDS011;68405;47.190;27.558;2023-07-02T06:02:38;3.00;;;2.70;;
78838;SDS011;68405;47.190;27.558;2023-07-02T06:05:07;3.60;;;3.40;;
78838;SDS011;68405;47.190;27.558;2023-07-02T06:07:36;3.40;;;3.00;;
78838;SDS011;68405;47.190;27.558;2023-07-02T06:10:06;3.70;;;3.00;;
78838;SDS011;68405;47.190;27.558;2023-07-02T06:12:36;5.20;;;3.10;;
78838;SDS011;68405;47.190;27.558;2023-07-02T06:15:06;3.50;;;3.10;;
78838;SDS011;68405;47.190;27.558;2023-07-02T06:17:36;3.90;;;3.60;;
78838;SDS011;68405;47.190;27.558;2023-07-02T06:20:06;3.80;;;3.50;;
78838;SDS011;68405;47.190;27.558;2023-07-02T06:22:36;3.30;;;3.00;;
78838;SDS011;68405;47.190;27.558;2023-07-02T06:25:07;4.20;;;3.10;;
78838;SDS011;68405;47.190;27.558;2023-07-02T06:27:36;4.40;;;3.30;;
78838;SDS011;68405;47.190;27.558;2023-07-02T06:30:06;4.20;;;3.80;;
78838;SDS011;68405;47.190;27.558;2023-07-02T06:32:36;4.10;;;3.80;;
78838;SDS011;68405;47.190;27.558;2023-07-02T06:35:06;4.30;;;3.50;;
78838;SDS011;68405;47.190;27.558;2023-07-02T06:37:36;3.80;;;3.50;;
78838;SDS011;68405;47.190;27.558;2023-07-02T06:40:06;4.10;;;3.70;;
78838;SDS011;68405;47.190;27.558;2023-07-02T06:42:36;3.90;;;3.60;;
78838;SDS011;68405;47.190;27.558;2023-07-02T06:45:06;5.70;;;4.60;;
78838;SDS011;68405;47.190;27.558;2023-07-02T06:47:35;4.70;;;4.20;;
78838;SDS011;68405;47.190;27.558;2023-07-02T06:50:05;4.60;;;4.20;;
78838;SDS011;68405;47.190;27.558;2023-07-02T06:52:34;5.00;;;4.20;;
78838;SDS011;68405;47.190;27.558;2023-07-02T06:55:04;5.80;;;3.90;;
78838;SDS011;68405;47.190;27.558;2023-07-02T06:57:33;6.00;;;3.60;;
78838;SDS011;68405;47.190;27.558;2023-07-02T07:00:02;4.60;;;4.30;;
78838;SDS011;68405;47.190;27.558;2023-07-02T07:02:33;4.00;;;3.50;;
78838;SDS011;68405;47.190;27.558;2023-07-02T07:05:02;5.80;;;3.60;;
78838;SDS011;68405;47.190;27.558;2023-07-02T07:07:31;4.20;;;3.80;;
78838;SDS011;68405;47.190;27.558;2023-07-02T07:10:01;4.20;;;3.80;;
78838;SDS011;68405;47.190;27.558;2023-07-02T07:12:30;4.00;;;3.60;;
78838;SDS011;68405;47.190;27.558;2023-07-02T07:14:59;4.70;;;3.60;;
78838;SDS011;68405;47.190;27.558;2023-07-02T07:17:29;5.00;;;3.50;;
78838;SDS011;68405;47.190;27.558;2023-07-02T07:19:58;4.50;;;3.70;;
78838;SDS011;68405;47.190;27.558;2023-07-02T07:22:29;4.10;;;3.70;;
78838;SDS011;68405;47.190;27.558;2023-07-02T07:24:58;4.40;;;3.70;;
78838;SDS011;68405;47.190;27.558;2023-07-02T07:27:27;3.70;;;3.40;;
78838;SDS011;68405;47.190;27.558;2023-07-02T07:29:55;4.30;;;3.90;;
78838;SDS011;68405;47.190;27.558;2023-07-02T07:32:24;3.90;;;3.30;;
78838;SDS011;68405;47.190;27.558;2023-07-02T07:34:53;4.70;;;4.30;;
78838;SDS011;68405;47.190;27.558;2023-07-02T07:37:22;4.40;;;3.60;;
78838;SDS011;68405;47.190;27.558;2023-07-02T07:39:51;3.80;;;3.30;;
78838;SDS011;68405;47.190;27.558;2023-07-02T07:42:20;3.60;;;3.30;;
78838;SDS011;68405;47.190;27.558;2023-07-02T07:44:49;3.50;;;3.20;;
78838;SDS011;68405;47.190;27.558;2023-07-02T07:47:18;4.00;;;3.40;;
78838;SDS011;68405;47.190;27.558;2023-07-02T07:49:47;3.60;;;3.40;;
78838;SDS011;68405;47.190;27.558;2023-07-02T07:52:16;3.60;;;3.10;;
78838;SDS011;68405;47.190;27.558;2023-07-02T07:54:44;3.60;;;3.10;;
78838;SDS011;68405;47.190;27.558;2023-07-02T07:57:13;3.20;;;2.90;;
78838;SDS011;68405;47.190;27.558;2023-07-02T07:59:42;4.90;;;3.00;;
78838;SDS011;68405;47.190;27.558;2023-07-02T08:02:11;3.50;;;3.10;;
78838;SDS011;68405;47.190;27.558;2023-07-02T08:04:40;4.30;;;3.00;;
78838;SDS011;68405;47.190;27.558;2023-07-02T08:07:09;3.10;;;2.80;;
78838;SDS011;68405;47.190;27.558;2023-07-02T08:09:37;3.10;;;2.80;;
78838;SDS011;68405;47.190;27.558;2023-07-02T08:12:08;2.80;;;2.30;;
78838;SDS011;68405;47.190;27.558;2023-07-02T08:14:37;3.00;;;2.70;;
78838;SDS011;68405;47.190;27.558;2023-07-02T08:17:06;5.30;;;2.30;;
78838;SDS011;68405;47.190;27.558;2023-07-02T08:19:34;5.70;;;2.60;;
78838;SDS011;68405;47.190;27.558;2023-07-02T08:22:04;3.00;;;2.20;;
78838;SDS011;68405;47.190;27.558;2023-07-02T08:24:33;2.60;;;2.20;;
78838;SDS011;68405;47.190;27.558;2023-07-02T08:27:02;2.10;;;1.90;;
78838;SDS011;68405;47.190;27.558;2023-07-02T08:29:32;2.50;;;2.10;;
78838;SDS011;68405;47.190;27.558;2023-07-02T08:32:01;3.60;;;2.10;;
78838;SDS011;68405;47.190;27.558;2023-07-02T08:34:31;2.90;;;2.40;;
78838;SDS011;68405;47.190;27.558;2023-07-02T08:36:59;2.70;;;2.10;;
78838;SDS011;68405;47.190;27.558;2023-07-02T08:39:29;3.00;;;2.50;;
78838;SDS011;68405;47.190;27.558;2023-07-02T08:41:58;2.80;;;2.30;;
78838;SDS011;68405;47.190;27.558;2023-07-02T08:44:26;2.50;;;2.30;;
78838;SDS011;68405;47.190;27.558;2023-07-02T08:46:55;2.40;;;2.10;;
78838;SDS011;68405;47.190;27.558;2023-07-02T08:49:24;2.00;;;1.80;;
78838;SDS011;68405;47.190;27.558;2023-07-02T08:51:53;3.00;;;2.50;;
78838;SDS011;68405;47.190;27.558;2023-07-02T08:54:22;2.60;;;2.40;;
78838;SDS011;68405;47.190;27.558;2023-07-02T08:56:51;3.20;;;2.50;;
78838;SDS011;68405;47.190;27.558;2023-07-02T08:59:20;2.30;;;2.10;;
78838;SDS011;68405;47.190;27.558;2023-07-02T09:01:49;2.60;;;2.40;;
78838;SDS011;68405;47.190;27.558;2023-07-02T09:04:19;2.70;;;2.30;;
78838;SDS011;68405;47.190;27.558;2023-07-02T09:06:50;2.80;;;2.50;;
78838;SDS011;68405;47.190;27.558;2023-07-02T09:09:31;2.90;;;2.60;;
78838;SDS011;68405;47.190;27.558;2023-07-02T09:12:00;2.30;;;2.10;;
78838;SDS011;68405;47.190;27.558;2023-07-02T09:14:29;2.90;;;2.60;;
78838;SDS011;68405;47.190;27.558;2023-07-02T09:17:02;2.70;;;2.40;;
78838;SDS011;68405;47.190;27.558;2023-07-02T09:19:33;3.90;;;2.00;;
78838;SDS011;68405;47.190;27.558;2023-07-02T09:22:02;3.40;;;2.30;;
78838;SDS011;68405;47.190;27.558;2023-07-02T09:24:31;3.10;;;2.30;;
78838;SDS011;68405;47.190;27.558;2023-07-02T09:27:00;2.50;;;1.90;;
78838;SDS011;68405;47.190;27.558;2023-07-02T09:29:30;3.30;;;2.00;;
78838;SDS011;68405;47.190;27.558;2023-07-02T09:32:00;3.40;;;2.50;;
78838;SDS011;68405;47.190;27.558;2023-07-02T09:34:31;3.50;;;2.30;;
78838;SDS011;68405;47.190;27.558;2023-07-02T09:37:01;3.30;;;2.50;;
78838;SDS011;68405;47.190;27.558;2023-07-02T09:39:32;3.30;;;2.30;;
78838;SDS011;68405;47.190;27.558;2023-07-02T09:42:05;2.50;;;2.10;;
78838;SDS011;68405;47.190;27.558;2023-07-02T09:44:36;2.70;;;2.50;;
78838;SDS011;68405;47.190;27.558;2023-07-02T09:47:08;2.30;;;2.10;;
78838;SDS011;68405;47.190;27.558;2023-07-02T09:49:38;2.20;;;2.00;;
78838;SDS011;68405;47.190;27.558;2023-07-02T09:52:09;2.20;;;1.90;;
78838;SDS011;68405;47.190;27.558;2023-07-02T09:54:39;1.90;;;1.80;;
78838;SDS011;68405;47.190;27.558;2023-07-02T09:57:08;3.10;;;2.50;;
78838;SDS011;68405;47.190;27.558;2023-07-02T09:59:38;3.40;;;2.80;;
78838;SDS011;68405;47.190;27.558;2023-07-02T10:02:09;3.10;;;2.20;;
78838;SDS011;68405;47.190;27.558;2023-07-02T10:04:41;2.50;;;2.20;;
78838;SDS011;68405;47.190;27.558;2023-07-02T10:07:10;2.80;;;2.60;;
78838;SDS011;68405;47.190;27.558;2023-07-02T10:09:43;2.20;;;2.00;;
78838;SDS011;68405;47.190;27.558;2023-07-02T10:14:46;3.90;;;2.40;;
78838;SDS011;68405;47.190;27.558;2023-07-02T10:17:25;5.80;;;2.20;;
78838;SDS011;68405;47.190;27.558;2023-07-02T10:19:56;2.80;;;2.30;;
78838;SDS011;68405;47.190;27.558;2023-07-02T10:22:26;3.10;;;2.10;;
78838;SDS011;68405;47.190;27.558;2023-07-02T10:24:56;2.90;;;2.10;;
78838;SDS011;68405;47.190;27.558;2023-07-02T10:27:36;3.60;;;2.80;;
78838;SDS011;68405;47.190;27.558;2023-07-02T10:30:07;4.00;;;2.40;;
78838;SDS011;68405;47.190;27.558;2023-07-02T10:32:37;3.40;;;2.80;;
78838;SDS011;68405;47.190;27.558;2023-07-02T10:35:16;5.40;;;2.20;;
78838;SDS011;68405;47.190;27.558;2023-07-02T10:40:13;2.70;;;2.40;;
78838;SDS011;68405;47.190;27.558;2023-07-02T10:42:46;2.90;;;2.40;;
78838;SDS011;68405;47.190;27.558;2023-07-02T10:45:16;3.30;;;2.10;;
78838;SDS011;68405;47.190;27.558;2023-07-02T10:47:45;4.10;;;2.20;;
78838;SDS011;68405;47.190;27.558;2023-07-02T10:50:18;3.00;;;2.50;;
78838;SDS011;68405;47.190;27.558;2023-07-02T10:52:48;3.20;;;2.30;;
78838;SDS011;68405;47.190;27.558;2023-07-02T10:55:18;3.10;;;2.30;;
78838;SDS011;68405;47.190;27.558;2023-07-02T10:57:48;2.80;;;2.50;;
78838;SDS011;68405;47.190;27.558;2023-07-02T11:00:19;3.10;;;2.60;;
78838;SDS011;68405;47.190;27.558;2023-07-02T11:02:48;2.50;;;2.30;;
78838;SDS011;68405;47.190;27.558;2023-07-02T11:05:17;3.20;;;2.50;;
78838;SDS011;68405;47.190;27.558;2023-07-02T11:07:46;2.60;;;2.30;;
78838;SDS011;68405;47.190;27.558;2023-07-02T11:10:19;2.80;;;2.60;;
78838;SDS011;68405;47.190;27.558;2023-07-02T11:12:47;2.90;;;2.60;;
78838;SDS011;68405;47.190;27.558;2023-07-02T11:15:16;3.40;;;2.20;;
78838;SDS011;68405;47.190;27.558;2023-07-02T11:17:46;2.90;;;2.60;;
78838;SDS011;68405;47.190;27.558;2023-07-02T11:20:15;2.50;;;2.30;;
78838;SDS011;68405;47.190;27.558;2023-07-02T11:22:44;3.00;;;2.70;;
78838;SDS011;68405;47.190;27.558;2023-07-02T11:25:16;4.20;;;3.00;;
78838;SDS011;68405;47.190;27.558;2023-07-02T11:27:46;3.50;;;2.90;;
78838;SDS011;68405;47.190;27.558;2023-07-02T11:30:15;3.50;;;2.50;;
78838;SDS011;68405;47.190;27.558;2023-07-02T11:32:48;2.70;;;2.40;;
78838;SDS011;68405;47.190;27.558;2023-07-02T11:35:18;5.20;;;2.80;;
78838;SDS011;68405;47.190;27.558;2023-07-02T11:37:48;4.90;;;2.70;;
78838;SDS011;68405;47.190;27.558;2023-07-02T11:40:18;2.80;;;2.40;;
78838;SDS011;68405;47.190;27.558;2023-07-02T11:42:47;3.40;;;2.70;;
78838;SDS011;68405;47.190;27.558;2023-07-02T11:45:16;2.40;;;2.20;;
78838;SDS011;68405;47.190;27.558;2023-07-02T11:47:44;3.80;;;2.40;;
78838;SDS011;68405;47.190;27.558;2023-07-02T11:50:14;3.80;;;2.10;;
78838;SDS011;68405;47.190;27.558;2023-07-02T11:52:43;3.10;;;2.30;;
78838;SDS011;68405;47.190;27.558;2023-07-02T11:55:12;4.90;;;3.40;;
78838;SDS011;68405;47.190;27.558;2023-07-02T11:57:41;2.70;;;2.30;;
78838;SDS011;68405;47.190;27.558;2023-07-02T12:00:11;4.60;;;2.30;;
78838;SDS011;68405;47.190;27.558;2023-07-02T12:02:40;2.90;;;2.00;;
78838;SDS011;68405;47.190;27.558;2023-07-02T12:05:09;4.70;;;2.70;;
78838;SDS011;68405;47.190;27.558;2023-07-02T12:07:38;2.80;;;2.60;;
78838;SDS011;68405;47.190;27.558;2023-07-02T12:10:07;3.80;;;2.60;;
78838;SDS011;68405;47.190;27.558;2023-07-02T12:12:37;2.50;;;2.10;;
78838;SDS011;68405;47.190;27.558;2023-07-02T12:15:06;4.60;;;2.40;;
78838;SDS011;68405;47.190;27.558;2023-07-02T12:17:36;3.80;;;2.60;;
78838;SDS011;68405;47.190;27.558;2023-07-02T12:20:06;2.90;;;2.40;;
78838;SDS011;68405;47.190;27.558;2023-07-02T12:22:36;2.50;;;2.30;;
78838;SDS011;68405;47.190;27.558;2023-07-02T12:25:05;2.90;;;2.20;;
78838;SDS011;68405;47.190;27.558;2023-07-02T12:27:36;2.40;;;2.20;;
78838;SDS011;68405;47.190;27.558;2023-07-02T12:30:07;4.10;;;2.40;;
78838;SDS011;68405;47.190;27.558;2023-07-02T12:32:38;3.10;;;2.70;;
78838;SDS011;68405;47.190;27.558;2023-07-02T12:35:08;4.90;;;2.50;;
78838;SDS011;68405;47.190;27.558;2023-07-02T12:37:43;3.10;;;2.80;;
78838;SDS011;68405;47.190;27.558;2023-07-02T12:40:13;3.70;;;2.80;;
78838;SDS011;68405;47.190;27.558;2023-07-02T12:42:42;3.60;;;2.20;;
78838;SDS011;68405;47.190;27.558;2023-07-02T12:45:12;2.80;;;2.50;;
78838;SDS011;68405;47.190;27.558;2023-07-02T12:47:42;2.70;;;2.50;;
78838;SDS011;68405;47.190;27.558;2023-07-02T12:50:11;2.70;;;2.20;;
78838;SDS011;68405;47.190;27.558;2023-07-02T12:52:40;2.80;;;2.60;;
78838;SDS011;68405;47.190;27.558;2023-07-02T12:55:09;2.90;;;2.40;;
78838;SDS011;68405;47.190;27.558;2023-07-02T12:57:37;3.10;;;2.30;;
78838;SDS011;68405;47.190;27.558;2023-07-02T13:00:08;2.60;;;2.40;;
78838;SDS011;68405;47.190;27.558;2023-07-02T13:02:38;4.70;;;3.00;;
78838;SDS011;68405;47.190;27.558;2023-07-02T13:05:08;3.20;;;2.40;;
78838;SDS011;68405;47.190;27.558;2023-07-02T13:07:37;3.10;;;2.80;;
78838;SDS011;68405;47.190;27.558;2023-07-02T13:10:06;4.00;;;3.00;;
78838;SDS011;68405;47.190;27.558;2023-07-02T13:12:36;4.50;;;2.80;;
78838;SDS011;68405;47.190;27.558;2023-07-02T13:15:06;3.30;;;2.10;;
78838;SDS011;68405;47.190;27.558;2023-07-02T13:17:36;3.30;;;2.50;;
78838;SDS011;68405;47.190;27.558;2023-07-02T13:20:06;3.40;;;3.00;;
78838;SDS011;68405;47.190;27.558;2023-07-02T13:22:36;3.40;;;2.60;;
78838;SDS011;68405;47.190;27.558;2023-07-02T13:25:06;4.10;;;3.20;;
78838;SDS011;68405;47.190;27.558;2023-07-02T13:27:35;2.90;;;2.60;;
78838;SDS011;68405;47.190;27.558;2023-07-02T13:30:06;4.70;;;2.90;;
78838;SDS011;68405;47.190;27.558;2023-07-02T13:32:36;4.30;;;2.90;;
78838;SDS011;68405;47.190;27.558;2023-07-02T13:35:06;3.10;;;2.80;;
78838;SDS011;68405;47.190;27.558;2023-07-02T13:37:35;4.00;;;3.00;;
78838;SDS011;68405;47.190;27.558;2023-07-02T13:40:07;4.70;;;3.10;;
78838;SDS011;68405;47.190;27.558;2023-07-02T13:42:39;3.10;;;2.60;;
78838;SDS011;68405;47.190;27.558;2023-07-02T13:45:09;5.10;;;3.00;;
78838;SDS011;68405;47.190;27.558;2023-07-02T13:47:38;2.70;;;2.50;;
78838;SDS011;68405;47.190;27.558;2023-07-02T13:50:08;3.60;;;2.50;;
78838;SDS011;68405;47.190;27.558;2023-07-02T13:52:38;4.30;;;2.80;;
78838;SDS011;68405;47.190;27.558;2023-07-02T13:55:08;3.80;;;2.10;;
78838;SDS011;68405;47.190;27.558;2023-07-02T13:57:37;3.30;;;2.60;;
78838;SDS011;68405;47.190;27.558;2023-07-02T14:00:08;4.00;;;2.50;;
78838;SDS011;68405;47.190;27.558;2023-07-02T14:02:38;6.00;;;2.80;;
78838;SDS011;68405;47.190;27.558;2023-07-02T14:05:07;4.90;;;2.60;;
78838;SDS011;68405;47.190;27.558;2023-07-02T14:07:36;2.60;;;2.40;;
78838;SDS011;68405;47.190;27.558;2023-07-02T14:10:06;2.80;;;2.30;;
78838;SDS011;68405;47.190;27.558;2023-07-02T14:12:37;5.70;;;2.70;;
78838;SDS011;68405;47.190;27.558;2023-07-02T14:15:07;3.20;;;2.50;;
78838;SDS011;68405;47.190;27.558;2023-07-02T14:17:37;3.80;;;2.50;;
78838;SDS011;68405;47.190;27.558;2023-07-02T14:20:08;4.30;;;2.50;;
78838;SDS011;68405;47.190;27.558;2023-07-02T14:22:38;3.20;;;2.40;;
78838;SDS011;68405;47.190;27.558;2023-07-02T14:25:08;3.30;;;2.50;;
78838;SDS011;68405;47.190;27.558;2023-07-02T14:27:38;5.20;;;2.50;;
78838;SDS011;68405;47.190;27.558;2023-07-02T14:30:08;2.50;;;2.30;;
78838;SDS011;68405;47.190;27.558;2023-07-02T14:32:38;8.30;;;2.50;;
78838;SDS011;68405;47.190;27.558;2023-07-02T14:35:10;4.30;;;2.60;;
78838;SDS011;68405;47.190;27.558;2023-07-02T14:37:39;3.50;;;2.60;;
78838;SDS011;68405;47.190;27.558;2023-07-02T14:40:09;3.20;;;2.50;;
78838;SDS011;68405;47.190;27.558;2023-07-02T14:42:39;4.00;;;2.20;;
78838;SDS011;68405;47.190;27.558;2023-07-02T14:45:09;4.70;;;2.60;;
78838;SDS011;68405;47.190;27.558;2023-07-02T14:47:39;4.20;;;2.90;;
78838;SDS011;68405;47.190;27.558;2023-07-02T14:50:08;6.30;;;2.70;;
78838;SDS011;68405;47.190;27.558;2023-07-02T14:52:38;5.80;;;2.80;;